Time;durP1;ratioP1;P1;durP2;ratioP2;P2;SDS_P1;SDS_P2;PMS_P1;PMS_P2;Temp;Humidity;BMP_temperature;BMP_pressure;BME280_temperature;BME280_humidity;BME280_pressure;Samples;Min_cycle;Max_cycle;Signal;HPM_P1;HPM_P2
2022/06/25 00:01:34;;;;;;;3.50;2.70;;;17.10;99.90;;;;;;5093478;28;20542;-57
2022/06/25 00:04:01;;;;;;;3.67;2.47;;;17.10;99.90;;;;;;5093613;28;20456;-58
2022/06/25 00:06:28;;;;;;;3.07;2.77;;;17.10;99.90;;;;;;5093491;28;20482;-57
2022/06/25 00:08:56;;;;;;;4.03;3.73;;;17.00;99.90;;;;;;5093566;28;20530;-58
2022/06/25 00:14:10;;;;;;;3.23;3.03;;;17.10;99.90;;;;;;5093482;28;20894;-58
2022/06/25 00:16:39;;;;;;;3.10;2.83;;;17.10;99.90;;;;;;5093307;28;20447;-58
2022/06/25 00:19:06;;;;;;;4.40;2.87;;;17.10;99.90;;;;;;5093412;28;20491;-57
2022/06/25 00:21:33;;;;;;;2.80;2.60;;;17.00;99.90;;;;;;5093317;28;20466;-58
2022/06/25 00:24:01;;;;;;;2.90;2.37;;;17.00;99.90;;;;;;5093452;28;20453;-58
2022/06/25 00:26:28;;;;;;;5.40;2.50;;;17.00;99.90;;;;;;5092958;28;20946;-58
2022/06/25 00:28:55;;;;;;;3.73;2.77;;;17.00;99.90;;;;;;5093396;28;20443;-58
2022/06/25 00:31:23;;;;;;;3.20;2.90;;;16.90;99.90;;;;;;5092921;28;20449;-58
2022/06/25 00:33:51;;;;;;;2.73;2.40;;;16.90;99.90;;;;;;5093458;28;20851;-57
2022/06/25 00:36:19;;;;;;;3.60;3.10;;;16.90;99.90;;;;;;5093471;28;20935;-57
2022/06/25 00:38:46;;;;;;;4.00;3.00;;;16.90;99.90;;;;;;5096970;28;20513;-57
2022/06/25 00:41:13;;;;;;;4.50;2.57;;;16.90;99.90;;;;;;5097120;28;20861;-58
2022/06/25 00:43:41;;;;;;;5.37;3.23;;;17.00;99.90;;;;;;5097418;28;20482;-58
2022/06/25 00:46:08;;;;;;;3.43;2.80;;;17.00;99.90;;;;;;5096945;28;20934;-58
2022/06/25 00:48:35;;;;;;;3.40;2.50;;;17.00;99.90;;;;;;5097484;28;20491;-58
2022/06/25 00:51:10;;;;;;;3.43;2.63;;;16.90;99.90;;;;;;5096998;28;20558;-58
2022/06/25 00:53:40;;;;;;;3.73;2.90;;;16.80;99.90;;;;;;5096995;28;20952;-58
2022/06/25 00:56:10;;;;;;;8.83;2.60;;;16.90;99.90;;;;;;5097661;28;20848;-58
2022/06/25 00:58:43;;;;;;;2.93;2.73;;;16.80;99.90;;;;;;5096879;28;20520;-58
2022/06/25 01:01:11;;;;;;;4.10;2.80;;;16.80;99.90;;;;;;5097012;28;20672;-58
2022/06/25 01:03:38;;;;;;;5.80;3.20;;;16.60;99.90;;;;;;5096964;28;20451;-58
2022/06/25 01:06:08;;;;;;;3.53;3.23;;;16.70;99.90;;;;;;5096578;28;20451;-57
2022/06/25 01:08:36;;;;;;;2.70;2.50;;;16.70;99.90;;;;;;5096965;28;20454;-57
2022/06/25 01:11:04;;;;;;;3.50;2.40;;;16.70;99.90;;;;;;5096535;28;20475;-57
2022/06/25 01:13:31;;;;;;;2.43;2.20;;;16.60;99.90;;;;;;5096592;28;20948;-58
2022/06/25 01:15:58;;;;;;;7.47;3.00;;;16.60;99.90;;;;;;5096425;28;20443;-57
2022/06/25 01:18:26;;;;;;;3.33;2.90;;;16.60;99.90;;;;;;5096789;28;20439;-57
2022/06/25 01:20:53;;;;;;;2.67;2.47;;;16.60;99.90;;;;;;5096314;28;21049;-58
2022/06/25 01:23:22;;;;;;;2.60;2.40;;;16.60;99.90;;;;;;5096313;28;20957;-59
2022/06/25 01:25:49;;;;;;;3.37;2.83;;;16.70;99.90;;;;;;5096127;28;20934;-57
2022/06/25 01:28:17;;;;;;;3.17;2.87;;;16.60;99.90;;;;;;5096249;28;20483;-58
2022/06/25 01:30:44;;;;;;;3.67;2.97;;;16.60;99.90;;;;;;5095969;28;20474;-58
2022/06/25 01:33:11;;;;;;;3.37;2.93;;;16.60;99.90;;;;;;5096406;28;20443;-58
2022/06/25 01:35:38;;;;;;;3.47;2.97;;;16.60;99.90;;;;;;5096300;28;20537;-58
2022/06/25 01:38:06;;;;;;;4.03;2.40;;;16.60;99.90;;;;;;5095899;28;20464;-58
2022/06/25 01:40:34;;;;;;;3.27;3.07;;;16.60;99.90;;;;;;5096021;28;20487;-58
2022/06/25 01:43:02;;;;;;;3.60;2.60;;;16.60;99.90;;;;;;5096219;28;20543;-58
2022/06/25 01:45:31;;;;;;;5.63;3.10;;;16.70;99.90;;;;;;5096202;28;20493;-58
2022/06/25 01:47:58;;;;;;;3.00;2.80;;;16.60;99.90;;;;;;5096036;28;20554;-58
2022/06/25 01:50:26;;;;;;;4.57;2.83;;;16.60;99.90;;;;;;5095442;28;20538;-58
2022/06/25 01:52:53;;;;;;;3.20;2.33;;;16.50;99.90;;;;;;5096032;28;20538;-58
2022/06/25 01:55:21;;;;;;;3.30;3.00;;;16.50;99.90;;;;;;5095680;28;20934;-58
2022/06/25 01:57:50;;;;;;;2.50;2.30;;;16.60;99.90;;;;;;5096111;28;20453;-58
2022/06/25 02:00:21;;;;;;;3.10;2.80;;;16.50;99.90;;;;;;5095452;28;20555;-58
2022/06/25 02:02:48;;;;;;;2.90;2.70;;;16.60;99.90;;;;;;5095607;28;20511;-58
2022/06/25 02:05:17;;;;;;;3.70;2.90;;;16.50;99.90;;;;;;5095647;28;20527;-58
2022/06/25 02:07:45;;;;;;;3.40;3.10;;;16.50;99.90;;;;;;5095768;28;20448;-58
2022/06/25 02:10:12;;;;;;;3.57;2.80;;;16.50;99.90;;;;;;5095687;28;20463;-57
2022/06/25 02:12:39;;;;;;;5.23;3.50;;;16.50;99.90;;;;;;5095667;28;20448;-58
2022/06/25 02:15:09;;;;;;;3.07;2.87;;;16.50;99.90;;;;;;5095670;28;20552;-57
2022/06/25 02:17:36;;;;;;;2.70;2.50;;;16.50;99.90;;;;;;5095356;28;20494;-58
2022/06/25 02:20:04;;;;;;;3.10;2.47;;;16.50;99.90;;;;;;5095184;28;20483;-58
2022/06/25 02:22:31;;;;;;;2.73;2.43;;;16.50;99.90;;;;;;5095083;28;21021;-58
2022/06/25 02:24:58;;;;;;;3.33;2.57;;;16.50;99.90;;;;;;5095249;28;20572;-57
2022/06/25 02:27:25;;;;;;;5.70;2.83;;;16.50;99.90;;;;;;5094988;28;20450;-57
2022/06/25 02:29:52;;;;;;;2.60;2.40;;;16.50;99.90;;;;;;5095354;28;20464;-58
2022/06/25 02:32:21;;;;;;;3.73;2.60;;;16.50;99.90;;;;;;5095063;28;20476;-58
2022/06/25 02:34:48;;;;;;;2.93;2.40;;;16.50;99.90;;;;;;5095286;28;20470;-58
2022/06/25 02:37:16;;;;;;;5.90;2.70;;;16.40;99.90;;;;;;5094895;28;20439;-58
2022/06/25 02:39:43;;;;;;;3.20;2.90;;;16.50;99.90;;;;;;5093526;28;20574;-58
2022/06/25 02:42:10;;;;;;;5.33;2.60;;;16.50;99.90;;;;;;5094707;28;20810;-57
2022/06/25 02:44:37;;;;;;;3.63;2.17;;;16.50;99.90;;;;;;5095137;28;20953;-58
2022/06/25 02:47:05;;;;;;;2.73;2.53;;;16.50;99.90;;;;;;5094824;28;20527;-58
2022/06/25 02:49:34;;;;;;;6.17;2.50;;;16.50;99.90;;;;;;5094914;28;20466;-58
2022/06/25 02:52:01;;;;;;;2.60;2.40;;;16.50;99.90;;;;;;5094725;28;20456;-58
2022/06/25 02:54:28;;;;;;;4.50;3.30;;;16.50;99.90;;;;;;5094662;28;20443;-58
2022/06/25 02:59:40;;;;;;;2.83;2.63;;;16.40;99.90;;;;;;5093829;28;20478;-58
2022/06/25 03:02:07;;;;;;;2.60;2.40;;;16.50;99.90;;;;;;5094314;28;20456;-58
2022/06/25 03:04:36;;;;;;;2.67;2.47;;;16.40;99.90;;;;;;5094683;28;20456;-58
2022/06/25 03:07:04;;;;;;;4.90;3.70;;;16.40;99.90;;;;;;5094279;28;20450;-58
2022/06/25 03:09:31;;;;;;;2.30;2.10;;;16.50;99.90;;;;;;5094521;28;20466;-58
2022/06/25 03:11:58;;;;;;;3.00;2.80;;;16.50;99.90;;;;;;5094460;28;20501;-58
2022/06/25 03:14:25;;;;;;;3.00;2.70;;;16.50;99.90;;;;;;5094622;28;20873;-58
2022/06/25 03:16:52;;;;;;;3.33;3.03;;;16.50;99.90;;;;;;5094340;28;20546;-57
2022/06/25 03:19:20;;;;;;;2.30;2.17;;;16.50;99.90;;;;;;5094462;28;20995;-58
2022/06/25 03:21:48;;;;;;;8.13;2.83;;;16.50;99.90;;;;;;5094073;28;20535;-58
2022/06/25 03:24:15;;;;;;;3.43;2.07;;;16.50;99.90;;;;;;5094072;28;20459;-57
2022/06/25 03:26:43;;;;;;;4.43;2.70;;;16.50;99.90;;;;;;5094098;28;20534;-58
2022/06/25 03:29:10;;;;;;;3.63;2.37;;;16.50;99.90;;;;;;5093836;28;21053;-58
2022/06/25 03:31:37;;;;;;;3.00;2.30;;;16.40;99.90;;;;;;5094238;28;20443;-58
2022/06/25 03:34:05;;;;;;;3.40;2.77;;;16.40;99.90;;;;;;5094162;28;20865;-56
2022/06/25 03:36:32;;;;;;;3.73;2.50;;;16.40;99.90;;;;;;5093935;28;20534;-57
2022/06/25 03:39:01;;;;;;;3.47;2.33;;;16.30;99.90;;;;;;5093422;28;20529;-58
2022/06/25 03:41:36;;;;;;;10.23;3.40;;;16.30;99.90;;;;;;5093879;28;20779;-58
2022/06/25 03:44:04;;;;;;;3.70;2.50;;;16.30;99.90;;;;;;5094068;28;20851;-58
2022/06/25 03:46:32;;;;;;;3.60;2.70;;;16.30;99.90;;;;;;5093848;28;20447;-58
2022/06/25 03:49:00;;;;;;;2.77;2.40;;;16.40;99.90;;;;;;5075558;28;20871;-58
2022/06/25 03:51:27;;;;;;;2.57;2.37;;;16.30;99.90;;;;;;5093229;28;20476;-58
2022/06/25 03:53:55;;;;;;;2.97;2.67;;;16.30;99.90;;;;;;5093464;28;20519;-58
2022/06/25 03:56:24;;;;;;;6.10;2.93;;;16.30;99.90;;;;;;5093636;28;20470;-58
2022/06/25 03:58:53;;;;;;;2.57;2.33;;;16.30;99.90;;;;;;5093667;28;20454;-58
2022/06/25 04:01:21;;;;;;;2.50;2.30;;;16.30;99.90;;;;;;5093504;28;20487;-58
2022/06/25 04:03:48;;;;;;;3.17;2.70;;;16.30;99.90;;;;;;5093686;28;20504;-58
2022/06/25 04:06:16;;;;;;;3.57;2.93;;;16.30;99.90;;;;;;5093461;28;20775;-57
2022/06/25 04:08:43;;;;;;;4.53;3.07;;;16.40;99.90;;;;;;5093240;28;20782;-58
2022/06/25 04:11:10;;;;;;;3.63;2.30;;;16.30;99.90;;;;;;5092502;28;20440;-58
2022/06/25 04:13:39;;;;;;;2.80;2.60;;;16.30;99.90;;;;;;5093534;28;20475;-58
2022/06/25 04:16:06;;;;;;;4.13;3.03;;;16.40;99.90;;;;;;5093341;28;20451;-58
2022/06/25 04:18:34;;;;;;;3.33;3.03;;;16.40;99.90;;;;;;5093597;28;20462;-58
2022/06/25 04:21:01;;;;;;;2.67;2.47;;;16.40;99.90;;;;;;5092944;28;20562;-58
2022/06/25 04:23:28;;;;;;;3.53;2.43;;;16.40;99.90;;;;;;5093121;28;20538;-58
2022/06/25 04:25:56;;;;;;;5.20;2.23;;;16.40;99.90;;;;;;5093368;28;20467;-58
2022/06/25 04:31:09;;;;;;;3.13;2.83;;;16.50;99.90;;;;;;5093125;28;20430;-58
2022/06/25 04:33:36;;;;;;;3.07;2.80;;;16.40;99.90;;;;;;5093208;28;20530;-58
2022/06/25 04:36:04;;;;;;;3.73;2.53;;;16.50;99.90;;;;;;5093193;28;20451;-58
2022/06/25 04:38:31;;;;;;;3.23;2.93;;;16.50;99.90;;;;;;5093026;28;20562;-58
2022/06/25 04:40:58;;;;;;;5.40;2.50;;;16.50;99.90;;;;;;5092999;28;20487;-57
2022/06/25 04:43:25;;;;;;;2.80;2.60;;;16.50;99.90;;;;;;5093244;28;20443;-58
2022/06/25 04:45:52;;;;;;;6.23;3.20;;;16.60;99.90;;;;;;5092915;28;20451;-57
2022/06/25 04:48:21;;;;;;;3.20;2.90;;;16.60;99.90;;;;;;5093298;28;20477;-58
2022/06/25 04:50:48;;;;;;;4.43;2.70;;;16.60;99.90;;;;;;5092906;28;20491;-58
2022/06/25 04:53:16;;;;;;;2.60;2.40;;;16.60;99.90;;;;;;5093251;28;20443;-58
2022/06/25 04:55:43;;;;;;;4.00;2.37;;;16.80;99.90;;;;;;5092795;28;20450;-58
2022/06/25 04:58:10;;;;;;;4.70;2.63;;;16.80;99.90;;;;;;5092850;28;20501;-58
2022/06/25 05:00:37;;;;;;;6.93;2.93;;;16.80;99.90;;;;;;5092995;28;20483;-58
2022/06/25 05:03:05;;;;;;;4.33;2.90;;;16.90;99.90;;;;;;5093066;28;20448;-58
2022/06/25 05:05:34;;;;;;;3.47;2.83;;;16.90;99.90;;;;;;5092748;28;20538;-58
2022/06/25 05:08:01;;;;;;;2.40;2.20;;;17.00;99.90;;;;;;5092905;28;20446;-58
2022/06/25 05:10:28;;;;;;;3.23;3.03;;;17.00;99.90;;;;;;5093147;28;20495;-57
2022/06/25 05:13:13;;;;;;;3.30;2.90;;;17.00;99.90;;;;;;5092823;28;20534;-58
2022/06/25 05:15:41;;;;;;;3.13;2.30;;;17.10;99.90;;;;;;5092738;28;20412;-58
2022/06/25 05:18:09;;;;;;;4.93;2.37;;;17.10;99.90;;;;;;5092969;28;20451;-58
2022/06/25 05:20:40;;;;;;;2.27;2.10;;;17.20;99.90;;;;;;5092237;28;20485;-58
2022/06/25 05:23:08;;;;;;;4.23;2.80;;;17.30;99.90;;;;;;5094426;28;21008;-58
2022/06/25 05:25:35;;;;;;;5.83;2.23;;;17.30;99.90;;;;;;5096041;28;20457;-58
2022/06/25 05:28:03;;;;;;;2.53;2.03;;;17.40;99.90;;;;;;5096310;28;20515;-60
2022/06/25 05:30:30;;;;;;;2.20;1.93;;;17.50;99.90;;;;;;5096321;28;20463;-58
2022/06/25 05:32:58;;;;;;;2.50;2.30;;;17.60;99.90;;;;;;5096140;28;20962;-58
2022/06/25 05:35:25;;;;;;;5.63;2.50;;;17.60;99.90;;;;;;5096130;28;20472;-58
2022/06/25 05:37:54;;;;;;;6.50;2.67;;;17.60;99.90;;;;;;5095843;28;21059;-58
2022/06/25 05:40:22;;;;;;;3.97;2.73;;;17.70;99.90;;;;;;5095703;28;20943;-58
2022/06/25 05:42:49;;;;;;;2.30;2.10;;;17.60;99.90;;;;;;5096209;28;20443;-58
2022/06/25 05:45:16;;;;;;;2.90;2.60;;;17.60;99.90;;;;;;5096059;28;20534;-58
2022/06/25 05:47:43;;;;;;;2.90;2.70;;;17.60;99.90;;;;;;5096135;28;20486;-58
2022/06/25 05:50:11;;;;;;;1.97;1.87;;;17.70;99.90;;;;;;5095990;28;20495;-58
2022/06/25 05:52:38;;;;;;;3.63;2.03;;;17.80;99.90;;;;;;5095430;28;20487;-58
2022/06/25 05:55:08;;;;;;;2.10;1.90;;;18.00;99.90;;;;;;5095692;28;20436;-58
2022/06/25 05:57:36;;;;;;;4.03;2.30;;;18.00;99.90;;;;;;5095536;28;20447;-58
2022/06/25 06:00:04;;;;;;;2.53;2.33;;;18.00;99.90;;;;;;5095654;28;21035;-57
2022/06/25 06:02:31;;;;;;;2.83;2.30;;;18.10;99.90;;;;;;5095405;28;20458;-58
2022/06/25 06:04:58;;;;;;;2.40;2.20;;;18.30;99.90;;;;;;5095448;28;20461;-57
2022/06/25 06:07:26;;;;;;;2.83;1.80;;;18.30;99.90;;;;;;5095284;28;20475;-57
2022/06/25 06:09:53;;;;;;;2.17;2.07;;;18.40;99.90;;;;;;5095435;28;20962;-57
2022/06/25 06:12:21;;;;;;;2.53;2.33;;;18.50;99.90;;;;;;5095294;28;20930;-58
2022/06/25 06:14:49;;;;;;;4.47;2.30;;;18.60;99.90;;;;;;5099857;27;20504;-57
2022/06/25 06:17:16;;;;;;;2.57;2.37;;;18.70;99.90;;;;;;5104524;27;20517;-60
2022/06/25 06:19:43;;;;;;;9.90;2.17;;;18.70;99.90;;;;;;5106153;28;20462;-54
2022/06/25 06:22:10;;;;;;;2.40;2.20;;;18.80;99.90;;;;;;5099575;28;20478;-58
2022/06/25 06:24:37;;;;;;;2.60;2.40;;;18.80;99.90;;;;;;5103433;27;20463;-55
2022/06/25 06:27:05;;;;;;;5.00;2.17;;;18.90;99.90;;;;;;5109769;28;20464;-56
2022/06/25 06:29:33;;;;;;;2.60;2.23;;;18.90;99.90;;;;;;5109715;28;20562;-56
2022/06/25 06:32:00;;;;;;;9.87;2.33;;;19.00;99.90;;;;;;5102554;27;20879;-59
2022/06/25 06:34:27;;;;;;;4.30;2.57;;;18.90;99.90;;;;;;5106279;27;20818;-59
2022/06/25 06:36:55;;;;;;;3.37;2.40;;;19.00;99.90;;;;;;5109462;27;20537;-59
2022/06/25 06:39:22;;;;;;;4.13;2.60;;;19.00;99.90;;;;;;5111064;27;21182;-59
2022/06/25 06:41:49;;;;;;;2.40;2.20;;;19.20;99.90;;;;;;5104100;28;20478;-60
2022/06/25 06:44:16;;;;;;;2.27;2.03;;;19.30;99.90;;;;;;5096836;27;20466;-59
2022/06/25 06:46:45;;;;;;;2.10;2.00;;;19.30;99.90;;;;;;5106781;28;20458;-59
2022/06/25 06:49:12;;;;;;;2.43;2.23;;;19.30;99.90;;;;;;5100100;28;20478;-60
2022/06/25 06:51:39;;;;;;;3.57;2.30;;;19.30;99.90;;;;;;5103923;27;20538;-60
2022/06/25 06:54:07;;;;;;;3.40;2.40;;;19.30;99.90;;;;;;5106845;28;20454;-59
2022/06/25 06:56:34;;;;;;;4.83;2.10;;;19.40;99.90;;;;;;5107801;27;20477;-59
2022/06/25 06:59:01;;;;;;;2.13;1.93;;;19.50;99.90;;;;;;5108612;28;20489;-59
2022/06/25 07:01:28;;;;;;;2.70;2.27;;;19.90;99.90;;;;;;5111030;27;20478;-59
2022/06/25 07:03:57;;;;;;;5.10;2.00;;;20.50;99.90;;;;;;5108388;27;20470;-60
2022/06/25 07:06:24;;;;;;;3.57;1.97;;;21.00;99.90;;;;;;5106513;27;20494;-60
2022/06/25 07:08:51;;;;;;;2.60;2.40;;;21.70;99.90;;;;;;5108525;28;20470;-59
2022/06/25 07:11:31;;;;;;;3.60;2.50;;;;;;;;;;5114206;27;20804;-60
2022/06/25 07:14:00;;;;;;;3.00;2.70;;;;;;;;;;5109653;27;20477;-60
2022/06/25 07:16:27;;;;;;;2.70;1.90;;;23.80;99.90;;;;;;5104736;28;20462;-60
2022/06/25 07:18:57;;;;;;;2.13;1.93;;;24.10;99.90;;;;;;5106533;27;20467;-60
2022/06/25 07:21:25;;;;;;;2.83;2.17;;;24.50;99.90;;;;;;5104935;27;20481;-60
2022/06/25 07:23:53;;;;;;;2.87;1.60;;;24.40;99.90;;;;;;5110413;28;20970;-60
2022/06/25 07:26:20;;;;;;;2.40;2.20;;;24.40;99.90;;;;;;5126233;27;20520;-60
2022/06/25 07:28:48;;;;;;;2.60;2.00;;;24.50;99.90;;;;;;5109339;27;20516;-60
2022/06/25 07:31:15;;;;;;;3.17;1.60;;;24.70;99.90;;;;;;5111486;28;20454;-59
2022/06/25 07:33:43;;;;;;;4.70;2.47;;;24.80;99.90;;;;;;5121490;27;20461;-60
2022/06/25 07:36:12;;;;;;;1.80;1.70;;;24.70;99.90;;;;;;5108602;28;20466;-60
2022/06/25 07:38:39;;;;;;;1.80;1.70;;;25.00;99.90;;;;;;5110533;27;20565;-60
2022/06/25 07:41:06;;;;;;;2.40;1.63;;;25.60;99.90;;;;;;5107106;27;21025;-60
2022/06/25 07:43:34;;;;;;;3.37;2.53;;;26.10;99.90;;;;;;5098961;27;20984;-60
2022/06/25 07:46:02;;;;;;;2.20;2.00;;;25.70;99.90;;;;;;5110248;27;20459;-60
2022/06/25 07:48:30;;;;;;;1.90;1.80;;;26.10;99.90;;;;;;5105796;27;20493;-59
2022/06/25 07:53:43;;;;;;;2.97;2.03;;;26.00;99.90;;;;;;5100936;28;21083;-59
2022/06/25 07:56:10;;;;;;;2.20;2.00;;;26.10;99.90;;;;;;5101375;28;20465;-60
2022/06/25 07:58:37;;;;;;;3.00;2.07;;;26.20;99.90;;;;;;5110998;27;20542;-59
2022/06/25 08:01:04;;;;;;;1.90;1.80;;;26.40;99.90;;;;;;5110001;28;20486;-60
2022/06/25 08:03:32;;;;;;;6.80;2.13;;;26.30;99.90;;;;;;5110082;28;20537;-59
2022/06/25 08:05:59;;;;;;;3.63;2.10;;;26.30;99.90;;;;;;5119995;27;20497;-59
2022/06/25 08:08:27;;;;;;;3.23;2.07;;;26.60;99.90;;;;;;5110643;28;20461;-59
2022/06/25 08:10:56;;;;;;;3.07;2.27;;;27.00;99.90;;;;;;5108943;28;20486;-61
2022/06/25 08:13:23;;;;;;;2.20;2.00;;;;;;;;;;5098793;28;20462;-59
2022/06/25 08:15:51;;;;;;;2.27;2.07;;;27.60;99.90;;;;;;5120760;27;20560;-60
2022/06/25 08:18:18;;;;;;;2.20;2.00;;;;;;;;;;5110357;28;20462;-59
2022/06/25 08:20:46;;;;;;;2.57;1.63;;;28.40;99.90;;;;;;5109553;28;20470;-60
2022/06/25 08:23:13;;;;;;;2.90;1.87;;;28.50;99.90;;;;;;5111661;28;20458;-60
2022/06/25 08:25:40;;;;;;;2.33;1.80;;;26.90;99.90;;;;;;5113410;28;20483;-60
2022/06/25 08:28:09;;;;;;;4.80;2.07;;;26.10;99.90;;;;;;5110848;28;20465;-59
2022/06/25 08:30:39;;;;;;;3.00;1.90;;;26.20;99.90;;;;;;5110046;28;20515;-59
2022/06/25 08:33:06;;;;;;;5.90;2.33;;;26.20;99.90;;;;;;5107922;28;20454;-59
2022/06/25 08:35:33;;;;;;;2.43;2.20;;;26.40;99.90;;;;;;5112481;28;20971;-59
2022/06/25 08:38:01;;;;;;;5.80;2.30;;;27.10;99.90;;;;;;5112709;28;20478;-60
2022/06/25 08:40:29;;;;;;;3.40;2.10;;;28.10;99.90;;;;;;5116117;28;20527;-60
2022/06/25 08:42:56;;;;;;;2.57;2.37;;;27.70;99.60;;;;;;5111988;28;21076;-59
2022/06/25 08:45:25;;;;;;;3.67;2.17;;;27.60;99.90;;;;;;5113326;28;20439;-59
2022/06/25 08:47:53;;;;;;;2.10;1.90;;;28.60;99.90;;;;;;5112281;28;20463;-59
2022/06/25 08:50:22;;;;;;;3.03;1.73;;;28.70;99.90;;;;;;5112845;28;20553;-59
2022/06/25 08:52:50;;;;;;;4.63;2.17;;;27.50;99.90;;;;;;5112328;28;20453;-60
2022/06/25 08:55:29;;;;;;;2.90;2.03;;;26.20;99.90;;;;;;5109330;28;20485;-59
2022/06/25 08:57:57;;;;;;;3.10;2.10;;;25.40;99.90;;;;;;5113798;28;20443;-59
2022/06/25 09:00:26;;;;;;;2.80;2.00;;;25.60;99.90;;;;;;5119670;27;20478;-59
2022/06/25 09:03:09;;;;;;;3.97;2.40;;;26.60;99.90;;;;;;5117132;28;20504;-59
2022/06/25 09:05:38;;;;;;;2.03;1.87;;;26.10;99.90;;;;;;5110980;27;20446;-60
2022/06/25 09:08:07;;;;;;;2.33;2.07;;;25.30;99.90;;;;;;5116957;28;20473;-60
2022/06/25 09:10:35;;;;;;;2.93;2.73;;;;;;;;;;5116646;27;20497;-59
2022/06/25 09:13:04;;;;;;;2.50;2.30;;;24.40;99.90;;;;;;5113323;27;20454;-59
2022/06/25 09:15:34;;;;;;;5.50;2.40;;;24.80;99.90;;;;;;5113184;27;20546;-59
2022/06/25 09:18:07;;;;;;;3.70;2.40;;;26.20;99.90;;;;;;5119611;27;20861;-58
2022/06/25 09:20:35;;;;;;;2.20;2.10;;;27.10;99.90;;;;;;5117766;27;20493;-59
2022/06/25 09:23:05;;;;;;;2.63;2.40;;;26.90;99.90;;;;;;5116043;28;20844;-59
2022/06/25 09:25:33;;;;;;;3.00;2.33;;;27.20;99.90;;;;;;5114529;28;20873;-60
2022/06/25 09:28:02;;;;;;;2.73;2.40;;;27.80;99.90;;;;;;5122142;27;20452;-59
2022/06/25 09:30:32;;;;;;;2.93;2.10;;;28.80;99.90;;;;;;5113937;28;20478;-59
2022/06/25 09:33:01;;;;;;;3.10;2.23;;;29.20;99.90;;;;;;5115192;28;20496;-59
2022/06/25 09:35:33;;;;;;;2.63;2.13;;;29.50;98.40;;;;;;5112559;27;20499;-60
2022/06/25 09:38:09;;;;;;;2.40;2.07;;;29.10;99.70;;;;;;5108077;27;20494;-60
2022/06/25 09:40:38;;;;;;;2.77;2.53;;;28.00;97.20;;;;;;5116073;27;20556;-60
2022/06/25 09:43:13;;;;;;;2.80;2.27;;;28.20;97.40;;;;;;5111395;28;20495;-60
2022/06/25 09:45:44;;;;;;;2.80;2.50;;;28.00;97.20;;;;;;5123397;27;20549;-60
2022/06/25 09:48:18;;;;;;;4.33;2.03;;;28.50;96.90;;;;;;5122283;27;20460;-60
2022/06/25 09:50:46;;;;;;;4.63;2.47;;;29.50;97.00;;;;;;5115283;28;21031;-60
2022/06/25 09:53:13;;;;;;;2.47;2.00;;;29.30;95.50;;;;;;5115804;28;20457;-60
2022/06/25 09:55:40;;;;;;;2.50;2.30;;;28.10;95.70;;;;;;5114320;27;20463;-60
2022/06/25 09:58:08;;;;;;;2.37;2.03;;;27.30;97.50;;;;;;5110262;27;20463;-60
2022/06/25 10:00:35;;;;;;;4.40;2.03;;;26.70;97.00;;;;;;5114719;27;20483;-61
2022/06/25 10:03:04;;;;;;;1.93;1.80;;;26.40;98.10;;;;;;5111644;28;20510;-61
2022/06/25 10:05:38;;;;;;;3.70;2.57;;;25.90;98.10;;;;;;5108324;28;20546;-61
2022/06/25 10:08:09;;;;;;;3.97;2.40;;;25.50;98.00;;;;;;5107580;28;20450;-61
2022/06/25 10:10:42;;;;;;;3.63;2.30;;;25.50;99.60;;;;;;5106675;28;20539;-60
2022/06/25 10:13:09;;;;;;;3.03;2.23;;;26.10;99.90;;;;;;5112132;28;20520;-60
2022/06/25 10:15:37;;;;;;;3.30;2.40;;;27.40;99.90;;;;;;5112471;27;20490;-61
2022/06/25 10:18:09;;;;;;;1.90;1.80;;;28.70;97.10;;;;;;5115011;28;20458;-61
2022/06/25 10:20:36;;;;;;;1.87;1.77;;;29.00;96.50;;;;;;5115937;28;20470;-61
2022/06/25 10:23:05;;;;;;;2.60;2.10;;;29.60;94.90;;;;;;5115760;28;20565;-61
2022/06/25 10:25:34;;;;;;;3.40;2.23;;;29.60;94.30;;;;;;5113472;28;20458;-61
2022/06/25 10:28:11;;;;;;;2.87;2.67;;;29.50;95.10;;;;;;5113965;28;20530;-60
2022/06/25 10:30:46;;;;;;;2.13;1.93;;;29.20;96.10;;;;;;5112115;27;21041;-58
2022/06/25 10:33:17;;;;;;;2.60;2.20;;;28.90;92.40;;;;;;5112561;28;20446;-59
2022/06/25 10:35:45;;;;;;;2.20;2.10;;;28.50;92.50;;;;;;5113855;28;20517;-58
2022/06/25 10:38:14;;;;;;;2.17;1.93;;;28.40;93.00;;;;;;5113417;28;20470;-58
2022/06/25 10:40:53;;;;;;;3.63;2.23;;;28.50;91.30;;;;;;5113389;28;20466;-58
2022/06/25 10:43:37;;;;;;;2.13;1.90;;;29.30;92.40;;;;;;5113078;28;20488;-58
2022/06/25 10:46:26;;;;;;;3.20;1.90;;;29.40;89.80;;;;;;5115487;28;20523;-58
2022/06/25 10:48:58;;;;;;;2.10;1.90;;;29.60;91.70;;;;;;5115550;28;20541;-58
2022/06/25 10:51:34;;;;;;;2.10;1.90;;;29.70;90.40;;;;;;5115376;28;20507;-58
2022/06/25 10:54:02;;;;;;;3.27;2.20;;;30.10;89.30;;;;;;5115087;28;20423;-58
2022/06/25 10:56:35;;;;;;;2.00;1.90;;;30.30;90.00;;;;;;5115049;28;20446;-58
2022/06/25 10:59:02;;;;;;;2.80;2.30;;;30.40;91.30;;;;;;5114900;28;21035;-58
2022/06/25 11:01:34;;;;;;;2.47;2.27;;;30.30;91.30;;;;;;5114751;28;20423;-58
2022/06/25 11:04:06;;;;;;;3.93;2.20;;;30.80;88.20;;;;;;5114893;28;20418;-58
2022/06/25 11:06:36;;;;;;;2.53;2.00;;;31.10;86.80;;;;;;5114933;28;20512;-58
2022/06/25 11:09:09;;;;;;;4.60;1.90;;;31.00;89.80;;;;;;5114795;28;20449;-58
2022/06/25 11:11:37;;;;;;;2.50;1.73;;;31.20;89.60;;;;;;5114972;28;20439;-57
2022/06/25 11:14:14;;;;;;;2.10;1.90;;;31.40;88.10;;;;;;5114882;28;20530;-58
2022/06/25 11:16:43;;;;;;;4.43;2.33;;;30.70;92.20;;;;;;5114815;28;20454;-58
2022/06/25 11:19:11;;;;;;;2.57;2.10;;;30.60;92.60;;;;;;5114355;28;20474;-58
2022/06/25 11:21:40;;;;;;;2.00;1.80;;;31.00;84.70;;;;;;5114094;28;20447;-58
2022/06/25 11:24:19;;;;;;;2.13;1.93;;;30.90;82.40;;;;;;5114770;28;20831;-58
2022/06/25 11:29:35;;;;;;;2.90;2.07;;;31.00;82.40;;;;;;5114234;28;21046;-58
2022/06/25 11:32:02;;;;;;;2.60;2.40;;;31.50;82.80;;;;;;5114620;28;20434;-58
2022/06/25 11:34:32;;;;;;;2.40;1.90;;;31.60;84.10;;;;;;5114374;28;20449;-58
2022/06/25 11:37:05;;;;;;;2.20;2.00;;;31.00;78.90;;;;;;5114186;28;20478;-58
2022/06/25 11:39:33;;;;;;;3.00;1.93;;;31.10;77.00;;;;;;5113953;28;20474;-58
2022/06/25 11:42:01;;;;;;;3.93;2.17;;;31.10;80.50;;;;;;5113892;28;20537;-58
2022/06/25 11:44:28;;;;;;;3.93;2.10;;;31.00;80.50;;;;;;5114179;28;20542;-58
2022/06/25 11:46:57;;;;;;;2.57;2.17;;;30.90;78.30;;;;;;5114025;28;21031;-58
2022/06/25 11:49:24;;;;;;;3.50;2.27;;;31.40;74.80;;;;;;5114268;28;20496;-58
2022/06/25 11:51:55;;;;;;;2.27;1.90;;;30.70;74.20;;;;;;5114018;28;20534;-58
2022/06/25 11:54:24;;;;;;;2.00;1.90;;;30.40;71.30;;;;;;5113826;28;20435;-58
2022/06/25 11:56:54;;;;;;;3.40;1.70;;;30.40;75.50;;;;;;5113860;28;20450;-58
2022/06/25 11:59:26;;;;;;;3.43;2.00;;;31.10;72.70;;;;;;5114080;28;20470;-58
2022/06/25 12:01:53;;;;;;;2.67;1.97;;;31.00;73.80;;;;;;5113320;28;20865;-58
2022/06/25 12:04:20;;;;;;;3.30;2.13;;;29.90;73.80;;;;;;5113487;28;20447;-58
2022/06/25 12:06:48;;;;;;;2.00;1.80;;;30.20;74.00;;;;;;5113869;28;20446;-58
2022/06/25 12:09:19;;;;;;;1.73;1.63;;;30.10;72.90;;;;;;5113605;28;20494;-58
2022/06/25 12:11:52;;;;;;;2.90;1.90;;;30.20;70.00;;;;;;5113878;28;20521;-58
2022/06/25 12:14:28;;;;;;;1.80;1.70;;;30.50;72.60;;;;;;5113631;28;20434;-58
2022/06/25 12:16:56;;;;;;;3.17;2.47;;;30.50;71.30;;;;;;5113757;28;20438;-58
2022/06/25 12:19:23;;;;;;;1.90;1.70;;;30.90;74.40;;;;;;5114104;28;20450;-58
2022/06/25 12:21:50;;;;;;;1.60;1.50;;;31.10;72.40;;;;;;5113712;28;20442;-58
2022/06/25 12:24:22;;;;;;;1.90;1.80;;;31.20;70.30;;;;;;5113823;28;20543;-58
2022/06/25 12:26:53;;;;;;;2.03;1.83;;;;;;;;;;5113771;28;20488;-58
2022/06/25 12:29:24;;;;;;;1.80;1.70;;;31.60;68.50;;;;;;5113611;28;20470;-58
2022/06/25 12:31:59;;;;;;;2.43;1.90;;;31.70;72.00;;;;;;5113394;28;20930;-58
2022/06/25 12:34:28;;;;;;;1.80;1.70;;;31.50;71.90;;;;;;5117925;28;20463;-58
2022/06/25 12:36:56;;;;;;;1.93;1.50;;;31.10;66.40;;;;;;5117554;28;20945;-58
2022/06/25 12:39:38;;;;;;;3.13;2.37;;;30.60;68.60;;;;;;5117447;28;20834;-58
2022/06/25 12:42:10;;;;;;;4.40;1.80;;;30.70;70.30;;;;;;5117839;28;20960;-58
2022/06/25 12:44:39;;;;;;;5.23;2.47;;;31.10;70.70;;;;;;5117689;28;20526;-58
2022/06/25 12:47:08;;;;;;;1.97;1.83;;;30.90;68.70;;;;;;5117705;28;20470;-58
2022/06/25 12:49:48;;;;;;;3.30;2.03;;;30.50;67.80;;;;;;5117316;28;20493;-58
2022/06/25 12:52:17;;;;;;;1.90;1.70;;;30.50;67.20;;;;;;5117738;28;20426;-58
2022/06/25 12:54:49;;;;;;;3.77;2.23;;;30.30;70.00;;;;;;5117310;28;20446;-58
2022/06/25 12:57:22;;;;;;;1.77;1.57;;;30.20;68.50;;;;;;5117779;28;20426;-58
2022/06/25 12:59:49;;;;;;;1.70;1.40;;;30.20;68.00;;;;;;5117339;28;20453;-58
2022/06/25 13:02:16;;;;;;;3.73;1.87;;;30.10;65.40;;;;;;5117217;28;20448;-58
2022/06/25 13:04:44;;;;;;;2.23;1.83;;;30.60;69.00;;;;;;5117213;28;20533;-58
2022/06/25 13:07:11;;;;;;;2.50;2.00;;;30.90;65.00;;;;;;5117429;28;20474;-58
2022/06/25 13:09:39;;;;;;;2.03;1.83;;;30.30;70.20;;;;;;5116932;28;20477;-58